Time;durP1;ratioP1;P1;durP2;ratioP2;P2;SDS_P1;SDS_P2;PMS_P1;PMS_P2;Temp;Humidity;BMP_temperature;BMP_pressure;BME280_temperature;BME280_humidity;BME280_pressure;Samples;Min_cycle;Max_cycle;Signal;HPM_P1;HPM_P2
2023/01/19 00:00:57;;;;;;;66.20;37.10;;;;;;;6.18;77.12;99505.81;4831091;29;20499;-78
2023/01/19 00:03:28;;;;;;;64.32;36.30;;;;;;;5.83;77.05;99442.22;4820257;29;20064;-78
2023/01/19 00:06:23;;;;;;;64.72;36.13;;;;;;;6.17;76.86;99506.78;4843847;29;20178;-80
2023/01/19 00:09:10;;;;;;;69.65;36.83;;;;;;;5.73;77.18;99461.44;4851249;29;20166;-76
2023/01/19 00:11:57;;;;;;;69.93;35.83;;;;;;;5.87;77.61;99501.53;4817996;29;20570;-79
2023/01/19 00:14:29;;;;;;;68.07;38.22;;;;;;;6.06;77.76;99530.59;4811892;29;20578;-78
2023/01/19 00:16:58;;;;;;;66.95;36.17;;;;;;;5.51;77.80;99437.91;4789308;28;20278;-80
2023/01/19 00:19:31;;;;;;;69.90;38.50;;;;;;;5.27;77.33;99389.06;4899351;28;20105;-80
2023/01/19 00:22:06;;;;;;;72.60;38.40;;;;;;;5.54;77.27;99437.66;4886750;28;20124;-80
2023/01/19 00:24:45;;;;;;;70.00;38.58;;;;;;;6.05;77.89;99523.69;4909869;28;20413;-78
2023/01/19 00:27:23;;;;;;;71.45;39.03;;;;;;;5.94;77.99;99513.25;4884329;28;20279;-79
2023/01/19 00:30:05;;;;;;;65.43;37.10;;;;;;;5.29;77.33;99397.69;4891603;28;20203;-79
2023/01/19 00:32:34;;;;;;;66.17;36.90;;;;;;;5.83;77.79;99505.41;4856970;29;20243;-78
2023/01/19 00:35:01;;;;;;;67.10;38.72;;;;;;;5.63;77.99;99471.09;4878752;29;20054;-78
2023/01/19 00:37:36;;;;;;;68.65;39.63;;;;;;;5.98;77.78;99535.72;4880765;29;20055;-78
2023/01/19 00:40:13;;;;;;;69.95;37.83;;;;;;;6.01;78.33;99545.97;4894424;28;20051;-79
2023/01/19 00:42:59;;;;;;;67.85;37.33;;;;;;;5.97;78.15;99555.13;4885907;28;20053;-79
2023/01/19 00:45:39;;;;;;;70.38;40.95;;;;;;;5.96;78.81;99553.47;4896473;28;20419;-80
2023/01/19 00:48:23;;;;;;;80.65;40.28;;;;;;;6.01;79.05;99539.88;4882942;28;20180;-78
2023/01/19 00:51:08;;;;;;;69.13;38.83;;;;;;;5.98;79.47;99530.47;4912083;28;20050;-80
2023/01/19 00:53:41;;;;;;;68.18;38.53;;;;;;;6.15;79.21;99569.34;4898775;28;20046;-79
2023/01/19 00:56:44;;;;;;;68.20;38.60;;;;;;;6.18;79.08;99590.16;4910870;28;20082;-79
2023/01/19 00:59:14;;;;;;;71.22;38.92;;;;;;;6.19;78.78;99583.09;4927141;28;20090;-79
2023/01/19 01:01:43;;;;;;;75.55;41.05;;;;;;;6.30;78.24;99606.69;4925282;28;20047;-79
2023/01/19 01:04:23;;;;;;;72.68;40.25;;;;;;;6.03;78.33;99574.84;4896051;28;20552;-80
2023/01/19 01:07:09;;;;;;;70.95;39.65;;;;;;;6.02;77.51;99555.56;4900297;29;20248;-79
2023/01/19 01:09:36;;;;;;;72.85;40.92;;;;;;;6.29;77.82;99612.13;4898258;29;20354;-78
2023/01/19 01:12:03;;;;;;;75.75;40.90;;;;;;;6.18;78.42;99600.69;4915382;29;20051;-77
2023/01/19 01:14:31;;;;;;;68.10;41.05;;;;;;;6.25;78.29;99600.16;4919462;29;20167;-79
2023/01/19 01:17:10;;;;;;;71.50;41.15;;;;;;;5.99;78.15;99563.72;4884999;29;20051;-80
2023/01/19 01:19:40;;;;;;;75.68;42.08;;;;;;;6.10;78.27;99582.09;4881713;29;20058;-79
2023/01/19 01:22:09;;;;;;;77.13;40.70;;;;;;;6.08;77.69;99568.19;4897389;29;20522;-78
2023/01/19 01:24:37;;;;;;;76.13;40.40;;;;;;;5.59;77.63;99474.13;4893285;29;20130;-79
2023/01/19 01:27:14;;;;;;;72.35;41.42;;;;;;;6.10;78.21;99534.66;4898575;29;20107;-79
2023/01/19 01:30:02;;;;;;;72.80;40.97;;;;;;;6.35;78.19;99561.50;4867895;29;20288;-79
2023/01/19 01:32:40;;;;;;;77.45;43.17;;;;;;;5.94;77.63;99502.69;4902359;29;20143;-80
2023/01/19 01:35:20;;;;;;;70.57;42.25;;;;;;;6.09;77.61;99518.97;4896754;29;20537;-78
2023/01/19 01:38:08;;;;;;;75.15;43.65;;;;;;;6.37;77.28;99562.19;4891835;29;20083;-79
2023/01/19 01:40:41;;;;;;;84.78;43.30;;;;;;;6.34;77.57;99557.22;4910412;29;20289;-78
2023/01/19 01:43:19;;;;;;;77.93;45.22;;;;;;;6.31;77.56;99554.81;4887524;29;20936;-78
2023/01/19 01:45:58;;;;;;;73.15;42.38;;;;;;;6.35;78.04;99556.22;4857332;29;20147;-79
2023/01/19 01:49:18;;;;;;;73.45;42.03;;;;;;;6.14;77.47;99517.63;4873690;29;20202;-79
2023/01/19 01:51:59;;;;;;;76.85;45.08;;;;;;;6.32;77.62;99538.03;4888628;29;20279;-78
2023/01/19 01:54:33;;;;;;;74.88;42.38;;;;;;;6.11;78.11;99506.50;4903753;29;20083;-79
2023/01/19 01:57:11;;;;;;;78.80;42.78;;;;;;;5.62;78.17;99394.88;4886765;29;20060;-79
2023/01/19 02:00:02;;;;;;;71.22;41.83;;;;;;;6.54;77.62;99526.44;4888159;29;20383;-80
2023/01/19 02:05:33;;;;;;;68.18;39.83;;;;;;;6.85;77.94;99501.59;4913166;29;20087;-78
2023/01/19 02:14:12;;;;;;;83.03;46.30;;;;;;;7.59;73.28;99484.22;4903040;29;20347;-78
2023/01/19 02:16:39;;;;;;;76.95;45.83;;;;;;;7.13;74.24;99469.19;4875227;29;20427;-79
2023/01/19 02:19:16;;;;;;;79.30;44.50;;;;;;;6.76;74.09;99454.94;4889745;29;20139;-79
2023/01/19 02:22:17;;;;;;;82.93;47.45;;;;;;;6.69;74.78;99503.13;4893151;29;20142;-77
2023/01/19 02:24:44;;;;;;;82.22;48.78;;;;;;;6.54;75.38;99521.97;4916629;28;20055;-76
2023/01/19 02:27:11;;;;;;;87.05;49.45;;;;;;;6.59;76.29;99556.69;4923910;28;20106;-80
2023/01/19 02:29:49;;;;;;;87.93;48.97;;;;;;;6.29;76.69;99538.31;4904649;29;20114;-81
2023/01/19 02:32:17;;;;;;;79.82;47.90;;;;;;;6.33;77.73;99555.53;4931463;28;20081;-80
2023/01/19 02:34:46;;;;;;;78.38;46.50;;;;;;;6.45;77.39;99577.34;4914832;28;20459;-77
2023/01/19 02:37:18;;;;;;;81.35;48.55;;;;;;;6.17;77.70;99517.34;4929670;28;20134;-79
2023/01/19 02:39:55;;;;;;;80.38;46.08;;;;;;;6.08;77.75;99507.59;4881157;29;20302;-79
2023/01/19 02:42:52;;;;;;;84.35;47.03;;;;;;;6.49;78.06;99550.56;4857907;29;20052;-79
2023/01/19 02:45:31;;;;;;;76.15;43.20;;;;;;;6.35;78.23;99514.03;4896630;29;20537;-79
2023/01/19 02:48:21;;;;;;;82.65;45.85;;;;;;;6.81;77.95;99549.50;4891049;29;20055;-79
2023/01/19 02:51:13;;;;;;;76.60;44.83;;;;;;;6.61;77.33;99480.09;4892660;29;20055;-79
2023/01/19 02:54:21;;;;;;;86.43;47.05;;;;;;;6.94;76.45;99530.75;4899637;29;20304;-77
2023/01/19 02:57:10;;;;;;;77.72;45.92;;;;;;;6.95;76.38;99538.53;4919100;28;20059;-79
2023/01/19 03:00:35;;;;;;;75.00;44.25;;;;;;;6.57;76.22;99490.06;4923384;28;20044;-77
2023/01/19 03:03:29;;;;;;;71.60;43.25;;;;;;;6.96;76.35;99558.66;4913255;28;20088;-78
2023/01/19 03:06:48;;;;;;;76.90;44.65;;;;;;;6.68;76.91;99504.09;4927113;28;20533;-77
2023/01/19 03:09:31;;;;;;;75.78;43.72;;;;;;;7.02;76.43;99546.72;4839996;29;20147;-80
2023/01/19 03:12:20;;;;;;;72.43;40.78;;;;;;;7.11;75.36;99537.13;4958249;28;20058;-80
2023/01/19 03:14:48;;;;;;;73.95;42.63;;;;;;;7.19;75.01;99532.00;4938696;28;20332;-80
2023/01/19 03:17:17;;;;;;;76.35;46.25;;;;;;;6.92;74.45;99541.47;4915524;28;20081;-80
2023/01/19 03:19:51;;;;;;;81.43;46.13;;;;;;;6.88;75.26;99561.16;4887980;29;20106;-81
2023/01/19 03:22:27;;;;;;;74.55;43.28;;;;;;;6.88;75.06;99574.34;4928284;28;20342;-78
2023/01/19 03:25:01;;;;;;;82.30;45.75;;;;;;;6.80;75.54;99566.31;4903556;29;20060;-79
2023/01/19 03:27:41;;;;;;;85.68;45.22;;;;;;;6.72;75.77;99555.59;4907657;29;20066;-79
2023/01/19 03:30:23;;;;;;;76.07;43.78;;;;;;;6.89;76.34;99554.91;4891908;29;20185;-78
2023/01/19 03:33:01;;;;;;;77.95;43.13;;;;;;;6.82;76.16;99545.88;4875912;29;20048;-81
2023/01/19 03:35:39;;;;;;;71.72;41.40;;;;;;;6.86;76.06;99552.53;4875798;29;20505;-80
2023/01/19 03:38:14;;;;;;;73.40;40.80;;;;;;;6.61;76.05;99499.38;4887784;29;20059;-80
2023/01/19 03:40:49;;;;;;;78.90;43.08;;;;;;;6.85;76.20;99535.06;4866657;29;20523;-79
2023/01/19 03:43:27;;;;;;;72.00;41.75;;;;;;;6.80;75.50;99526.75;4869175;29;20175;-79
2023/01/19 03:45:56;;;;;;;78.55;42.17;;;;;;;6.96;76.31;99542.81;4865564;29;20049;-78
2023/01/19 03:48:31;;;;;;;79.07;44.30;;;;;;;6.93;75.85;99527.28;4862253;29;20494;-79
2023/01/19 03:51:13;;;;;;;75.28;44.10;;;;;;;6.98;75.45;99529.50;4853375;29;20052;-79
2023/01/19 03:53:44;;;;;;;77.85;43.53;;;;;;;6.84;75.51;99517.56;4859182;29;20224;-78
2023/01/19 03:56:58;;;;;;;74.57;42.38;;;;;;;6.99;75.50;99524.09;4896032;29;20084;-78
2023/01/19 03:59:28;;;;;;;67.32;39.65;;;;;;;6.92;76.13;99508.94;4890499;29;20100;-79
2023/01/19 04:01:57;;;;;;;78.05;45.17;;;;;;;6.10;75.42;99381.81;4886601;29;20275;-78
2023/01/19 04:04:34;;;;;;;77.35;43.20;;;;;;;6.73;75.24;99494.78;4902364;29;20423;-77
2023/01/19 04:07:03;;;;;;;74.95;44.17;;;;;;;6.80;75.68;99513.56;4888224;29;20096;-80
2023/01/19 04:09:37;;;;;;;77.88;44.03;;;;;;;6.87;75.88;99554.22;4881244;29;20410;-80
2023/01/19 04:12:05;;;;;;;81.20;43.53;;;;;;;6.76;75.82;99557.00;4899738;29;20087;-79
2023/01/19 04:14:48;;;;;;;79.30;43.38;;;;;;;6.62;76.47;99548.50;4901337;29;20134;-76
2023/01/19 04:17:32;;;;;;;77.57;42.97;;;;;;;6.59;76.81;99546.13;4886793;29;20047;-78
2023/01/19 04:20:02;;;;;;;73.55;43.78;;;;;;;6.67;76.64;99524.34;4884002;29;20131;-79
2023/01/19 04:22:34;;;;;;;70.60;39.03;;;;;;;6.89;76.71;99512.69;4895253;29;20116;-80
2023/01/19 04:25:06;;;;;;;76.53;42.72;;;;;;;7.05;76.09;99497.13;4887027;29;20076;-77
2023/01/19 04:27:48;;;;;;;74.27;43.67;;;;;;;7.18;75.24;99490.72;4875966;29;20322;-79
2023/01/19 04:30:15;;;;;;;74.82;42.10;;;;;;;6.87;74.30;99484.78;4885435;29;20263;-79
2023/01/19 04:32:44;;;;;;;77.55;42.80;;;;;;;6.96;74.69;99534.91;4873255;29;20556;-78
2023/01/19 04:35:14;;;;;;;73.50;41.63;;;;;;;6.36;74.83;99471.75;4872641;29;20443;-79
2023/01/19 04:37:56;;;;;;;80.13;43.90;;;;;;;6.45;75.51;99528.06;4845541;29;20060;-78
2023/01/19 04:40:33;;;;;;;73.88;41.90;;;;;;;6.50;76.12;99557.50;4869195;29;20063;-80
2023/01/19 04:43:02;;;;;;;77.97;43.03;;;;;;;6.33;77.15;99560.78;4867905;29;20160;-79
2023/01/19 04:45:32;;;;;;;78.47;42.97;;;;;;;6.26;77.85;99562.28;4863557;29;20574;-80
2023/01/19 04:48:03;;;;;;;78.45;41.38;;;;;;;5.49;78.60;99440.69;4872625;29;20502;-78
2023/01/19 04:50:29;;;;;;;76.90;43.65;;;;;;;6.13;77.92;99544.91;4878685;29;20396;-79
2023/01/19 04:52:59;;;;;;;86.00;43.63;;;;;;;6.08;77.52;99543.66;4877146;29;20152;-80
2023/01/19 04:55:26;;;;;;;77.57;41.00;;;;;;;6.32;77.84;99574.94;4896244;29;20052;-78
2023/01/19 04:57:56;;;;;;;79.60;43.05;;;;;;;6.01;77.86;99514.38;4874690;29;20063;-79
2023/01/19 05:00:23;;;;;;;81.25;42.28;;;;;;;6.39;78.06;99544.44;4902338;29;20044;-79
2023/01/19 05:03:01;;;;;;;77.95;42.63;;;;;;;6.60;78.31;99568.91;4880002;29;20052;-77
2023/01/19 05:05:49;;;;;;;76.13;42.58;;;;;;;6.22;77.89;99500.31;4889742;29;20134;-80
2023/01/19 05:08:29;;;;;;;79.65;42.58;;;;;;;6.75;77.53;99568.53;4874239;29;20078;-79
2023/01/19 05:11:05;;;;;;;74.38;41.40;;;;;;;6.76;76.66;99580.72;4861509;29;20503;-78
2023/01/19 05:13:44;;;;;;;66.60;38.58;;;;;;;6.85;76.44;99564.91;4849470;29;20388;-79
2023/01/19 05:16:20;;;;;;;70.55;39.95;;;;;;;7.29;77.58;99569.78;4861151;29;20554;-77
2023/01/19 05:18:49;;;;;;;72.88;39.67;;;;;;;7.69;76.41;99556.38;4873956;29;20223;-80
2023/01/19 05:21:15;;;;;;;68.72;37.28;;;;;;;7.98;74.94;99517.56;4907052;29;20593;-79
2023/01/19 05:23:42;;;;;;;62.28;35.67;;;;;;;8.65;72.58;99508.44;4899878;29;20055;-76
2023/01/19 05:26:12;;;;;;;62.88;36.20;;;;;;;8.78;72.65;99516.00;4933983;28;20138;-77
2023/01/19 05:28:40;;;;;;;79.80;43.47;;;;;;;8.61;71.16;99546.75;4913326;28;20114;-80
2023/01/19 05:31:07;;;;;;;78.82;43.17;;;;;;;8.16;70.09;99575.81;4911642;28;20081;-79
2023/01/19 05:33:33;;;;;;;79.72;41.90;;;;;;;7.64;71.87;99577.06;4909448;29;20257;-79
2023/01/19 05:36:00;;;;;;;73.57;42.53;;;;;;;7.33;73.51;99565.88;4904158;29;20048;-79
2023/01/19 05:38:37;;;;;;;77.57;41.80;;;;;;;7.11;74.05;99571.44;4888779;29;20475;-79
2023/01/19 05:41:06;;;;;;;81.13;42.30;;;;;;;6.92;75.33;99570.47;4908859;29;20048;-78
2023/01/19 05:43:36;;;;;;;70.20;40.13;;;;;;;6.68;75.79;99546.31;4888823;29;20107;-79
2023/01/19 05:46:04;;;;;;;77.55;41.78;;;;;;;6.84;75.88;99575.59;4911352;29;20302;-79
2023/01/19 05:48:33;;;;;;;79.95;42.58;;;;;;;6.47;75.80;99539.31;4907919;29;20126;-78
2023/01/19 05:51:00;;;;;;;75.82;40.58;;;;;;;6.67;76.55;99557.81;4910054;29;20074;-77
2023/01/19 05:53:29;;;;;;;81.07;41.92;;;;;;;6.57;76.75;99539.34;4887672;29;20126;-80
2023/01/19 05:56:09;;;;;;;80.75;42.35;;;;;;;6.37;76.95;99520.03;4923425;29;20329;-79
2023/01/19 05:58:39;;;;;;;77.40;43.75;;;;;;;6.25;77.52;99477.13;4905151;28;20055;-79
2023/01/19 06:01:23;;;;;;;80.78;42.55;;;;;;;6.66;77.57;99550.88;4916902;28;20332;-78
2023/01/19 06:03:51;;;;;;;80.72;42.50;;;;;;;6.71;77.00;99575.03;4893570;28;20044;-78
2023/01/19 06:06:21;;;;;;;76.53;43.03;;;;;;;6.49;76.45;99547.94;4908497;29;20729;-80
2023/01/19 06:08:52;;;;;;;80.07;44.40;;;;;;;5.51;76.44;99420.34;4896441;29;20071;-79
2023/01/19 06:11:22;;;;;;;82.25;42.20;;;;;;;6.51;76.83;99611.09;4906187;29;20052;-79
2023/01/19 06:13:58;;;;;;;82.80;43.55;;;;;;;6.38;77.52;99611.31;4888509;29;20055;-78
2023/01/19 06:16:26;;;;;;;75.40;42.33;;;;;;;6.27;77.83;99614.06;4896673;28;20298;-79
2023/01/19 06:18:54;;;;;;;76.40;42.03;;;;;;;6.08;78.44;99593.72;4912643;29;20484;-78
2023/01/19 06:21:24;;;;;;;80.30;42.55;;;;;;;6.08;78.41;99610.38;4916623;29;20051;-80
2023/01/19 06:24:02;;;;;;;85.32;43.92;;;;;;;6.00;77.75;99618.09;4922750;29;20318;-78
2023/01/19 06:26:31;;;;;;;72.38;38.65;;;;;;;6.09;78.14;99637.53;4892302;29;20048;-79
2023/01/19 06:28:58;;;;;;;77.70;43.47;;;;;;;5.95;78.63;99620.31;4881703;29;20051;-80
2023/01/19 06:31:29;;;;;;;89.68;42.95;;;;;;;6.12;78.35;99643.41;4887284;29;20052;-78
2023/01/19 06:34:10;;;;;;;80.38;43.22;;;;;;;6.31;78.33;99668.16;4852125;29;20069;-79
2023/01/19 06:36:40;;;;;;;75.57;43.58;;;;;;;6.01;78.06;99625.03;4826125;29;20148;-78
2023/01/19 06:39:16;;;;;;;75.18;43.10;;;;;;;6.24;78.51;99665.25;4829488;29;20056;-78
2023/01/19 06:41:52;;;;;;;76.07;42.33;;;;;;;6.11;78.93;99636.44;4825091;29;20081;-79
2023/01/19 06:44:24;;;;;;;76.13;43.33;;;;;;;6.18;79.13;99632.31;4818116;29;20389;-79
2023/01/19 06:46:59;;;;;;;82.80;43.10;;;;;;;5.69;78.56;99565.34;4848295;29;20056;-78
2023/01/19 06:49:40;;;;;;;73.38;40.42;;;;;;;6.36;79.11;99682.63;4866340;29;20120;-79
2023/01/19 06:52:17;;;;;;;76.38;41.78;;;;;;;6.29;78.87;99678.03;4830792;29;20085;-78
2023/01/19 06:54:45;;;;;;;70.15;40.95;;;;;;;6.14;78.75;99659.91;4845870;29;20049;-79
2023/01/19 06:57:13;;;;;;;73.78;41.25;;;;;;;6.27;78.97;99687.84;4813595;29;20069;-77
2023/01/19 06:59:40;;;;;;;77.60;42.38;;;;;;;5.92;79.23;99644.22;4828582;29;20473;-77
2023/01/19 07:02:10;;;;;;;80.78;43.03;;;;;;;6.25;79.69;99697.69;4822386;29;20140;-79
2023/01/19 07:04:53;;;;;;;80.47;42.08;;;;;;;6.29;79.70;99701.75;4852633;29;20119;-79
2023/01/19 07:07:31;;;;;;;76.90;41.72;;;;;;;6.19;79.70;99684.06;4897414;29;20307;-79
2023/01/19 07:09:58;;;;;;;73.47;41.50;;;;;;;6.34;79.71;99710.94;4876306;29;20426;-79
2023/01/19 07:12:31;;;;;;;76.57;42.25;;;;;;;6.39;79.67;99716.63;4845304;29;20048;-78
2023/01/19 07:15:21;;;;;;;77.05;42.38;;;;;;;6.45;78.69;99701.25;4878550;29;20426;-81
2023/01/19 07:18:04;;;;;;;79.63;45.03;;;;;;;6.68;77.71;99728.28;4893749;29;20736;-78
2023/01/19 07:20:31;;;;;;;83.18;41.85;;;;;;;6.51;77.66;99721.84;4922563;29;20047;-79
2023/01/19 07:22:59;;;;;;;79.57;42.58;;;;;;;6.13;78.73;99676.69;4918475;29;20052;-81
2023/01/19 07:25:28;;;;;;;86.20;43.88;;;;;;;6.16;78.99;99686.94;4909746;29;20039;-80
2023/01/19 07:27:59;;;;;;;82.80;42.80;;;;;;;6.42;79.01;99736.63;4906413;29;20463;-81
2023/01/19 07:30:28;;;;;;;79.45;41.20;;;;;;;6.20;78.73;99712.09;4891384;29;20127;-80
2023/01/19 07:33:03;;;;;;;76.63;41.80;;;;;;;6.03;78.94;99678.44;4869736;29;20120;-80
2023/01/19 07:35:33;;;;;;;78.97;43.67;;;;;;;6.09;79.43;99693.75;4883313;29;20056;-81
2023/01/19 07:38:18;;;;;;;76.47;43.42;;;;;;;6.49;78.67;99758.88;4863860;29;20051;-80
2023/01/19 07:40:50;;;;;;;75.90;41.92;;;;;;;5.09;78.24;99516.91;4886720;29;20478;-79
2023/01/19 07:43:25;;;;;;;76.97;42.13;;;;;;;6.52;78.51;99757.78;4878187;29;20164;-78
2023/01/19 07:46:01;;;;;;;72.97;40.53;;;;;;;6.58;77.93;99765.16;4888851;29;20063;-78
2023/01/19 07:48:30;;;;;;;84.03;45.22;;;;;;;6.35;78.06;99738.13;4873777;29;20522;-79
2023/01/19 07:51:04;;;;;;;87.35;44.15;;;;;;;5.39;78.03;99586.38;4881387;29;20196;-79
2023/01/19 07:53:31;;;;;;;77.30;41.45;;;;;;;5.94;77.43;99672.13;4901855;29;20044;-79
2023/01/19 07:56:07;;;;;;;74.57;42.90;;;;;;;6.42;77.26;99765.63;4897165;29;20052;-79
2023/01/19 07:58:38;;;;;;;87.25;45.67;;;;;;;6.28;77.63;99760.69;4884307;29;20067;-80
2023/01/19 08:01:10;;;;;;;76.37;44.33;;;;;;;5.76;78.19;99697.38;4910889;29;20466;-80
2023/01/19 08:03:37;;;;;;;;;;;;;;;6.17;79.00;99798.50;4874991;29;20193;-80
2023/01/19 08:06:08;;;;;;;85.00;42.72;;;;;;;6.08;79.45;99802.72;4895659;29;19978;-78
2023/01/19 08:08:37;;;;;;;85.05;46.92;;;;;;;6.08;80.00;99810.63;4893341;29;20141;-78
2023/01/19 08:11:12;;;;;;;85.03;45.22;;;;;;;5.95;79.75;99805.53;4892879;29;20471;-79
2023/01/19 08:13:56;;;;;;;87.80;48.75;;;;;;;5.84;80.09;99792.38;4861434;29;20438;-79
2023/01/19 08:16:23;;;;;;;80.50;46.90;;;;;;;5.56;80.56;99735.88;4875380;29;20451;-78
2023/01/19 08:18:51;;;;;;;89.00;48.00;;;;;;;6.01;79.89;99804.19;4893281;29;20060;-79
2023/01/19 08:21:21;;;;;;;93.35;47.90;;;;;;;6.10;80.28;99824.53;4893069;29;20052;-78
2023/01/19 08:24:01;;;;;;;89.47;49.35;;;;;;;5.98;79.71;99810.56;4883758;29;20131;-79
2023/01/19 08:26:31;;;;;;;96.13;49.97;;;;;;;5.93;80.33;99811.88;4882716;29;20392;-77
2023/01/19 08:29:04;;;;;;;94.90;49.35;;;;;;;5.87;80.40;99809.72;4906502;29;20524;-76
2023/01/19 08:31:31;;;;;;;89.32;47.55;;;;;;;5.94;81.03;99817.03;4892146;29;20086;-80
2023/01/19 08:33:58;;;;;;;81.78;45.05;;;;;;;5.82;79.97;99789.03;4898046;29;20403;-78
2023/01/19 08:36:25;;;;;;;80.40;45.58;;;;;;;5.95;80.13;99804.72;4864677;29;20594;-79
2023/01/19 08:39:00;;;;;;;81.72;44.45;;;;;;;5.99;79.84;99816.66;4885927;29;20056;-79
2023/01/19 08:41:27;;;;;;;76.97;41.63;;;;;;;5.89;79.69;99815.72;4901612;29;20430;-80
2023/01/19 08:43:53;;;;;;;81.75;41.90;;;;;;;5.73;79.68;99785.38;4913367;29;20442;-78
2023/01/19 08:46:23;;;;;;;78.10;43.47;;;;;;;5.89;79.39;99815.72;4916223;29;20332;-81
2023/01/19 08:48:51;;;;;;;82.57;44.42;;;;;;;6.04;79.71;99830.28;4909275;29;20430;-80
2023/01/19 08:51:21;;;;;;;84.72;44.72;;;;;;;5.82;79.37;99793.47;4890392;28;20119;-79
2023/01/19 08:53:59;;;;;;;85.05;44.22;;;;;;;6.13;79.74;99847.97;4887897;29;20099;-77
2023/01/19 08:56:29;;;;;;;79.13;44.22;;;;;;;6.15;80.17;99827.59;4884313;29;20450;-79
2023/01/19 08:59:22;;;;;;;80.18;47.05;;;;;;;5.90;79.77;99797.16;4904354;29;20043;-78
2023/01/19 09:01:51;;;;;;;82.85;47.40;;;;;;;5.90;80.11;99764.72;4899021;29;20138;-79
2023/01/19 09:04:19;;;;;;;80.18;44.78;;;;;;;6.51;79.47;99849.22;4867670;29;20215;-78
2023/01/19 09:06:47;;;;;;;77.63;43.03;;;;;;;6.52;78.41;99845.63;4892305;29;20548;-78
2023/01/19 09:09:14;;;;;;;72.60;41.90;;;;;;;6.53;77.81;99842.03;4898145;29;20065;-78
2023/01/19 09:11:47;;;;;;;77.32;42.97;;;;;;;6.48;77.80;99849.50;4891640;29;20099;-78
2023/01/19 09:14:13;;;;;;;76.68;42.80;;;;;;;6.42;78.04;99850.00;4901647;29;20044;-76
2023/01/19 09:16:48;;;;;;;74.80;44.55;;;;;;;6.48;78.40;99857.41;4896692;29;20368;-78
2023/01/19 09:19:17;;;;;;;77.72;43.83;;;;;;;5.97;78.61;99772.00;4919943;29;20146;-77
2023/01/19 09:21:44;;;;;;;78.00;43.58;;;;;;;6.44;78.38;99839.34;4911531;29;20130;-78
2023/01/19 09:24:12;;;;;;;80.97;44.38;;;;;;;6.18;77.91;99806.25;4890130;29;20122;-78
2023/01/19 09:26:41;;;;;;;74.68;42.72;;;;;;;6.48;78.49;99838.94;4905963;28;20055;-78
2023/01/19 09:29:08;;;;;;;82.85;44.92;;;;;;;6.58;77.38;99863.56;4905862;29;20039;-77
2023/01/19 09:31:36;;;;;;;72.75;40.78;;;;;;;6.48;77.61;99846.88;4908598;29;20529;-80
2023/01/19 09:34:02;;;;;;;69.57;39.10;;;;;;;6.28;76.49;99789.69;4912461;29;20138;-80
2023/01/19 09:36:29;;;;;;;80.55;43.17;;;;;;;6.62;76.88;99857.06;4900804;29;20054;-76
2023/01/19 09:39:00;;;;;;;78.22;42.42;;;;;;;6.66;77.17;99860.28;4875915;29;20195;-77
2023/01/19 09:41:28;;;;;;;78.32;41.85;;;;;;;6.30;76.93;99812.31;4907098;29;20493;-79
2023/01/19 09:44:02;;;;;;;79.47;40.25;;;;;;;6.76;77.16;99882.28;4910107;28;20076;-79
2023/01/19 09:46:53;;;;;;;78.00;41.78;;;;;;;6.73;76.03;99873.81;4917031;29;20043;-79
2023/01/19 09:49:45;;;;;;;75.55;39.67;;;;;;;6.68;76.36;99878.63;4867209;28;20556;-80
2023/01/19 09:52:21;;;;;;;73.68;38.92;;;;;;;6.84;77.22;99885.13;4841269;28;20712;-78
2023/01/19 09:55:03;;;;;;;90.18;44.72;;;;;;;6.88;76.81;99883.06;4859102;29;20065;-80
2023/01/19 09:57:36;;;;;;;81.07;44.35;;;;;;;6.76;77.08;99889.38;4897807;29;20047;-79
2023/01/19 10:00:16;;;;;;;86.30;41.53;;;;;;;6.73;77.53;99892.28;4908461;29;20690;-81
2023/01/19 10:03:05;;;;;;;83.93;42.30;;;;;;;5.61;76.47;99728.44;4899119;29;20178;-79
2023/01/19 10:05:49;;;;;;;84.10;40.50;;;;;;;6.37;77.07;99892.56;4880584;29;20055;-78
2023/01/19 10:08:35;;;;;;;79.13;40.78;;;;;;;6.23;78.11;99892.84;4902230;28;20074;-78
2023/01/19 10:11:06;;;;;;;82.65;40.15;;;;;;;6.28;78.68;99905.66;4906021;29;20441;-79
2023/01/19 10:13:45;;;;;;;71.95;40.13;;;;;;;6.18;78.48;99890.59;4883570;29;20062;-76
2023/01/19 10:16:40;;;;;;;67.68;35.00;;;;;;;6.12;77.68;99904.28;4885336;29;20634;-78
2023/01/19 10:19:45;;;;;;;72.97;35.03;;;;;;;5.59;78.40;99837.47;4821082;29;20175;-79
2023/01/19 10:22:27;;;;;;;69.97;33.38;;;;;;;5.91;78.56;99893.66;4824865;29;20045;-79
2023/01/19 10:25:06;;;;;;;68.78;35.20;;;;;;;5.82;78.30;99880.38;4895854;29;20714;-79
2023/01/19 10:27:36;;;;;;;73.03;36.33;;;;;;;5.54;78.60;99846.56;4902746;29;20043;-78
2023/01/19 10:30:15;;;;;;;70.97;35.42;;;;;;;5.86;78.28;99916.06;4887427;29;20131;-79
2023/01/19 10:32:46;;;;;;;64.00;32.92;;;;;;;5.78;77.84;99912.25;4872518;29;20103;-79
2023/01/19 10:35:32;;;;;;;76.90;35.03;;;;;;;4.27;78.14;99677.72;4879371;29;20055;-78
2023/01/19 10:38:05;;;;;;;65.53;32.88;;;;;;;5.43;78.96;99864.19;4902490;29;20078;-78
2023/01/19 10:40:46;;;;;;;81.25;33.70;;;;;;;5.55;78.80;99897.44;4883607;29;20048;-79
2023/01/19 10:43:34;;;;;;;71.13;30.47;;;;;;;5.79;78.92;99916.53;4878415;29;20058;-77
2023/01/19 10:46:27;;;;;;;66.50;31.42;;;;;;;5.84;77.97;99917.97;4859941;29;20772;-78
2023/01/19 10:48:57;;;;;;;71.18;32.20;;;;;;;5.85;78.11;99909.97;4875793;29;20755;-77
2023/01/19 10:51:33;;;;;;;69.45;34.13;;;;;;;5.92;78.10;99910.28;4873502;29;20059;-80
2023/01/19 10:54:20;;;;;;;70.28;33.85;;;;;;;5.87;78.12;99909.81;4883284;29;20205;-77
2023/01/19 10:57:04;;;;;;;67.40;33.40;;;;;;;5.68;77.54;99887.63;4880782;29;20267;-79
2023/01/19 11:00:09;;;;;;;72.63;32.72;;;;;;;5.76;77.94;99906.25;4882288;29;20638;-80
2023/01/19 11:02:34;;;;;;;69.63;31.27;;;;;;;5.82;77.58;99902.28;4875022;29;20123;-81
2023/01/19 11:05:24;;;;;;;68.78;33.03;;;;;;;5.64;78.20;99874.81;4871162;29;20435;-79
2023/01/19 11:07:54;;;;;;;64.43;33.50;;;;;;;5.64;78.05;99870.38;4907435;28;20106;-79
2023/01/19 11:10:33;;;;;;;80.00;35.65;;;;;;;5.76;77.54;99890.47;4868227;29;20052;-80
2023/01/19 11:13:12;;;;;;;72.25;33.28;;;;;;;5.86;78.46;99895.00;4880390;29;20185;-79
2023/01/19 11:15:52;;;;;;;68.50;33.97;;;;;;;5.87;77.75;99892.22;4902171;29;20401;-79
2023/01/19 11:18:29;;;;;;;63.70;32.05;;;;;;;5.89;78.41;99894.72;4891224;29;20059;-79
2023/01/19 11:21:26;;;;;;;59.67;32.03;;;;;;;5.92;77.93;99895.34;4901641;29;20160;-77
2023/01/19 11:24:13;;;;;;;61.20;31.65;;;;;;;5.98;77.56;99883.50;4902298;29;20314;-80
2023/01/19 11:27:01;;;;;;;63.22;33.40;;;;;;;6.06;78.00;99899.50;4884001;29;20118;-80
2023/01/19 11:30:09;;;;;;;63.20;32.33;;;;;;;5.91;77.62;99861.22;4852159;29;20044;-81
2023/01/19 11:32:44;;;;;;;60.67;32.45;;;;;;;6.09;77.15;99886.09;4899508;29;20087;-80
2023/01/19 11:35:50;;;;;;;55.45;30.92;;;;;;;6.14;76.73;99891.84;4901151;29;20265;-79
2023/01/19 11:38:30;;;;;;;54.17;30.13;;;;;;;6.03;77.17;99883.94;4875424;29;20455;-80
2023/01/19 11:41:03;;;;;;;60.00;30.38;;;;;;;6.07;76.15;99890.66;4906190;29;20306;-81
2023/01/19 11:43:29;;;;;;;;;;;;;;;6.18;76.09;99918.75;4893169;29;20086;-79
2023/01/19 11:46:18;;;;;;;57.10;29.55;;;;;;;5.93;76.87;99904.06;4897153;29;20294;-80
2023/01/19 11:49:01;;;;;;;62.72;32.28;;;;;;;5.88;76.73;99901.81;4900192;29;20813;-81
2023/01/19 11:51:48;;;;;;;61.72;30.38;;;;;;;5.81;76.62;99897.16;4886497;29;20146;-80
2023/01/19 11:54:26;;;;;;;57.25;30.27;;;;;;;6.07;76.49;99927.53;4899160;29;20051;-81
2023/01/19 11:57:13;;;;;;;70.80;34.35;;;;;;;6.08;76.80;99923.09;4896606;29;20071;-80
2023/01/19 11:59:47;;;;;;;71.90;36.83;;;;;;;6.16;77.02;99942.59;4891772;29;20052;-80
2023/01/19 12:02:28;;;;;;;72.28;32.75;;;;;;;5.75;77.13;99880.03;4866522;29;20051;-80
2023/01/19 12:05:05;;;;;;;68.55;33.78;;;;;;;6.16;76.85;99958.41;4860468;29;20048;-80
2023/01/19 12:07:47;;;;;;;66.05;32.22;;;;;;;6.17;77.60;99964.53;4863931;29;20537;-82
2023/01/19 12:10:24;;;;;;;62.97;32.10;;;;;;;5.89;76.97;99895.56;4880489;29;20365;-79
2023/01/19 12:13:01;;;;;;;66.13;31.52;;;;;;;6.04;77.06;99946.22;4909383;29;20048;-78
2023/01/19 12:15:37;;;;;;;63.60;31.98;;;;;;;6.09;77.19;99970.44;4874767;29;20046;-79
2023/01/19 12:18:33;;;;;;;52.60;28.83;;;;;;;6.14;76.65;99985.84;4896662;29;20285;-78